Sicily, Illinois
Current Conditions -  °F | °C
As of 9:15 AM on Saturday 25 Oct 2014 (Local Time) from KTAZ Reporting Station
Overcast Overcast  
Wind Chill: 61°   Ceiling: 1100
Heat Index: 61°   Visibility: 7mi
Dew Point: 57°   Wind: 5mph
Humidity: 88%   Direction: 280°W
Pressure: 30.02"   Gusts: NA
Location:  39.5762°N, 89.554°W
Report Text: KTAZ 251415Z AUTO 28004KT 7SM OVC011 16/14 A3002 RMK AO2
Loading
Personal Weather Stations






























Interactive Weather Map
Tropical Storm Tracking
New forecast layout! Learn more

10-Day Weather Forecast

Advertisements
Track Severe Weather on mobile